Time;durP1;ratioP1;P1;durP2;ratioP2;P2;SDS_P1;SDS_P2;PMS_P1;PMS_P2;Temp;Humidity;BMP_temperature;BMP_pressure;BME280_temperature;BME280_humidity;BME280_pressure;Samples;Min_cycle;Max_cycle;Signal;HPM_P1;HPM_P2
2022/06/04 00:00:23;;;;;;;8.32;5.72;;;11.80;99.90;;;;;;5072923;28;20579;-74
2022/06/04 00:02:50;;;;;;;6.03;5.00;;;11.80;99.90;;;;;;5087378;28;20479;-75
2022/06/04 00:05:19;;;;;;;13.90;5.43;;;11.80;99.90;;;;;;5071933;28;20303;-75
2022/06/04 00:07:45;;;;;;;9.88;5.80;;;11.80;99.90;;;;;;5071750;28;20123;-75
2022/06/04 00:15:45;;;;;;;7.25;4.93;;;11.80;99.90;;;;;;5071208;28;20059;-74
2022/06/04 00:18:11;;;;;;;9.95;5.25;;;11.70;99.90;;;;;;5072690;28;20187;-75
2022/06/04 00:20:37;;;;;;;8.35;6.10;;;11.70;99.90;;;;;;5072555;28;20095;-75
2022/06/04 00:23:07;;;;;;;9.80;6.18;;;11.70;99.90;;;;;;5072654;28;20044;-74
2022/06/04 00:25:34;;;;;;;6.80;5.35;;;11.70;99.90;;;;;;5072731;28;20044;-74
2022/06/04 00:28:04;;;;;;;8.70;6.57;;;11.70;99.90;;;;;;5072731;28;20048;-75
2022/06/04 00:30:31;;;;;;;9.32;5.70;;;11.60;99.90;;;;;;5087877;28;20048;-74
2022/06/04 00:32:57;;;;;;;10.30;6.45;;;11.60;99.90;;;;;;5072278;28;20404;-74
2022/06/04 00:35:24;;;;;;;10.80;6.53;;;11.60;99.90;;;;;;5071787;28;20053;-74
2022/06/04 00:37:50;;;;;;;12.23;6.18;;;11.60;99.90;;;;;;5072429;28;20552;-74
2022/06/04 00:40:57;;;;;;;12.50;6.55;;;11.60;99.90;;;;;;5073075;28;20052;-75
2022/06/04 00:43:23;;;;;;;8.77;5.85;;;11.60;99.90;;;;;;5071959;28;20049;-74
2022/06/04 00:46:26;;;;;;;12.00;6.93;;;11.50;99.90;;;;;;5073018;28;20040;-74
2022/06/04 00:48:51;;;;;;;8.13;4.80;;;11.50;99.90;;;;;;5072859;28;20060;-74
2022/06/04 00:51:17;;;;;;;11.38;5.82;;;11.60;99.90;;;;;;5072390;28;20044;-75
2022/06/04 00:53:43;;;;;;;12.20;6.68;;;11.50;99.90;;;;;;5072052;28;20131;-74
2022/06/04 00:56:35;;;;;;;9.45;6.18;;;11.50;99.90;;;;;;5072333;28;20110;-74
2022/06/04 00:59:24;;;;;;;9.80;5.15;;;11.50;99.90;;;;;;5069976;28;20056;-74
2022/06/04 01:02:05;;;;;;;11.75;6.95;;;11.50;99.90;;;;;;5085773;28;20048;-74
2022/06/04 01:04:48;;;;;;;11.55;5.85;;;11.50;99.90;;;;;;5072309;28;20128;-74
2022/06/04 01:07:21;;;;;;;11.70;6.87;;;11.50;99.90;;;;;;5072413;28;20044;-74
2022/06/04 01:10:07;;;;;;;8.45;6.00;;;11.50;99.90;;;;;;5071318;28;20299;-74
2022/06/04 01:12:47;;;;;;;12.35;7.95;;;11.50;99.90;;;;;;5072237;28;20049;-74
2022/06/04 01:15:36;;;;;;;12.80;6.80;;;11.40;99.90;;;;;;5072518;28;20040;-73
2022/06/04 01:18:52;;;;;;;8.38;5.45;;;11.50;99.90;;;;;;5071503;28;20070;-74
2022/06/04 01:21:26;;;;;;;10.32;7.05;;;11.50;99.90;;;;;;5071951;28;20426;-74
2022/06/04 01:24:04;;;;;;;10.82;7.03;;;11.40;99.90;;;;;;5072570;28;20045;-74
2022/06/04 01:26:43;;;;;;;18.33;7.25;;;11.40;99.90;;;;;;5071004;28;20045;-74
2022/06/04 01:29:16;;;;;;;12.82;7.03;;;11.40;99.90;;;;;;5072669;28;20060;-73
2022/06/04 01:31:49;;;;;;;13.30;7.32;;;11.40;99.90;;;;;;5072600;28;20056;-74
2022/06/04 01:34:23;;;;;;;11.75;6.30;;;11.40;99.90;;;;;;5071137;28;20049;-73
2022/06/04 01:36:53;;;;;;;;;;;11.40;99.90;;;;;;5072582;28;20117;-73
2022/06/04 01:41:03;;;;;;;11.10;6.85;;;11.30;99.90;;;;;;5071296;28;20260;-73
2022/06/04 01:42:14;;;;;;;10.20;6.55;;;11.30;99.90;;;;;;5074717;28;20146;-74
2022/06/04 01:44:41;;;;;;;10.82;7.20;;;11.30;99.90;;;;;;5076003;28;20094;-74
2022/06/04 01:47:07;;;;;;;13.95;6.78;;;11.30;99.90;;;;;;5091624;28;20040;-74
2022/06/04 01:49:46;;;;;;;10.50;6.10;;;11.30;99.90;;;;;;5075830;28;20098;-73
2022/06/04 01:52:17;;;;;;;14.10;8.20;;;11.30;99.90;;;;;;5075555;28;20036;-74
2022/06/04 01:54:50;;;;;;;13.77;7.60;;;11.30;99.90;;;;;;5076023;28;20071;-75
2022/06/04 01:57:22;;;;;;;15.80;7.95;;;11.20;99.90;;;;;;5075495;28;20142;-74
2022/06/04 01:59:52;;;;;;;10.45;5.72;;;11.20;99.90;;;;;;5074209;28;20050;-74
2022/06/04 02:02:28;;;;;;;10.93;7.40;;;11.20;99.90;;;;;;5074170;28;20131;-74
2022/06/04 02:04:58;;;;;;;11.32;7.35;;;11.20;99.90;;;;;;5075688;28;20044;-75
2022/06/04 02:07:32;;;;;;;15.40;7.20;;;11.20;99.90;;;;;;5074557;28;20056;-74
2022/06/04 02:10:40;;;;;;;14.27;8.23;;;11.20;99.90;;;;;;5075379;28;20047;-74
2022/06/04 02:13:09;;;;;;;9.35;6.60;;;11.20;99.90;;;;;;5074285;28;20044;-74
2022/06/04 02:15:56;;;;;;;15.32;8.10;;;11.10;99.90;;;;;;5073980;28;20048;-74
2022/06/04 02:18:23;;;;;;;11.10;7.97;;;11.10;99.90;;;;;;5073909;28;20048;-74
2022/06/04 02:20:48;;;;;;;9.75;8.00;;;11.10;99.90;;;;;;5074864;28;20578;-75
2022/06/04 02:23:14;;;;;;;11.23;8.30;;;11.10;99.90;;;;;;5075396;28;20068;-75
2022/06/04 02:25:40;;;;;;;11.85;8.85;;;11.00;99.90;;;;;;5074870;28;20037;-73
2022/06/04 02:28:06;;;;;;;11.50;8.48;;;11.00;99.90;;;;;;5074939;28;20041;-75
2022/06/04 02:31:20;;;;;;;14.57;7.95;;;11.00;99.90;;;;;;5075322;28;20131;-75
2022/06/04 02:34:15;;;;;;;12.05;7.25;;;10.90;99.90;;;;;;5074683;28;20064;-74
2022/06/04 02:36:47;;;;;;;12.48;6.97;;;10.90;99.90;;;;;;5059533;28;20040;-74
2022/06/04 02:39:25;;;;;;;9.10;6.68;;;10.90;99.90;;;;;;5075782;28;20146;-75
2022/06/04 02:42:17;;;;;;;13.43;7.55;;;10.90;99.90;;;;;;5074921;28;20186;-74
2022/06/04 02:44:51;;;;;;;12.80;6.82;;;10.90;99.90;;;;;;5074273;28;20503;-74
2022/06/04 02:47:25;;;;;;;13.68;7.88;;;10.80;99.90;;;;;;5074657;28;20098;-74
2022/06/04 02:49:53;;;;;;;17.67;7.03;;;10.80;99.90;;;;;;5074818;28;20044;-74
2022/06/04 02:52:20;;;;;;;10.25;7.32;;;10.80;99.90;;;;;;5074001;28;20044;-74
2022/06/04 02:54:57;;;;;;;11.13;7.65;;;10.80;99.90;;;;;;5074355;28;20456;-75
2022/06/04 02:57:25;;;;;;;12.60;6.32;;;10.80;99.90;;;;;;5074712;28;20049;-74
2022/06/04 02:59:53;;;;;;;13.32;7.38;;;10.80;99.90;;;;;;5074346;28;20548;-74
2022/06/04 03:02:20;;;;;;;14.98;7.68;;;10.70;99.90;;;;;;5073877;28;20457;-74
2022/06/04 03:04:49;;;;;;;10.20;6.50;;;10.70;99.90;;;;;;5074694;28;20075;-75
2022/06/04 03:07:16;;;;;;;13.25;6.45;;;10.70;99.90;;;;;;5072878;28;20460;-74
2022/06/04 03:09:44;;;;;;;14.73;5.68;;;10.70;99.90;;;;;;5073692;28;20426;-74
2022/06/04 03:12:13;;;;;;;10.93;6.45;;;10.70;99.90;;;;;;5074121;28;20399;-74
2022/06/04 03:14:40;;;;;;;10.75;7.13;;;10.70;99.90;;;;;;5074091;28;20206;-74
2022/06/04 03:17:08;;;;;;;13.07;6.55;;;10.70;99.90;;;;;;5074124;28;20410;-74
2022/06/04 03:19:34;;;;;;;9.43;6.43;;;10.70;99.90;;;;;;5073896;28;20056;-74
2022/06/04 03:22:00;;;;;;;10.85;7.43;;;10.60;99.90;;;;;;5073746;28;20091;-74
2022/06/04 03:24:26;;;;;;;14.55;7.53;;;10.70;99.90;;;;;;5072881;28;20044;-74
2022/06/04 03:26:52;;;;;;;9.05;6.00;;;10.60;99.90;;;;;;5073608;28;20044;-74
2022/06/04 03:29:18;;;;;;;10.23;6.57;;;10.60;99.90;;;;;;5073558;28;20044;-74
2022/06/04 03:31:44;;;;;;;7.82;5.25;;;10.70;99.90;;;;;;5073777;28;20086;-75
2022/06/04 03:34:10;;;;;;;8.57;5.22;;;10.70;99.90;;;;;;5056273;28;20057;-74
2022/06/04 03:36:37;;;;;;;8.48;6.22;;;10.70;99.90;;;;;;5072925;28;20040;-74
2022/06/04 03:39:04;;;;;;;11.80;6.43;;;10.70;99.90;;;;;;5073455;28;20456;-74
2022/06/04 03:41:30;;;;;;;10.05;5.93;;;10.70;99.90;;;;;;5072309;28;20127;-74
2022/06/04 03:43:55;;;;;;;8.60;5.80;;;10.70;99.90;;;;;;5073365;28;20124;-73
2022/06/04 03:46:26;;;;;;;8.15;5.55;;;10.70;99.90;;;;;;5071963;28;20131;-74
2022/06/04 03:48:53;;;;;;;11.25;6.35;;;10.70;99.90;;;;;;5073291;28;20048;-73
2022/06/04 03:51:19;;;;;;;11.68;5.55;;;10.70;99.90;;;;;;5089599;28;20127;-74
2022/06/04 03:53:45;;;;;;;10.02;5.43;;;10.70;99.90;;;;;;5073306;28;20401;-73
2022/06/04 03:56:10;;;;;;;10.88;5.85;;;10.70;99.90;;;;;;5073559;28;20075;-74
2022/06/04 03:58:36;;;;;;;9.57;5.68;;;10.80;99.90;;;;;;5072211;28;20044;-75
2022/06/04 04:01:22;;;;;;;8.57;5.50;;;10.70;99.90;;;;;;5072073;28;20510;-74
2022/06/04 04:03:48;;;;;;;11.45;4.25;;;10.90;99.90;;;;;;5073399;28;20056;-73
2022/06/04 04:06:17;;;;;;;8.60;4.85;;;10.90;99.90;;;;;;5072931;28;20136;-74
2022/06/04 04:08:43;;;;;;;8.43;5.05;;;10.80;99.90;;;;;;5072930;28;20040;-74
2022/06/04 04:11:14;;;;;;;7.88;5.55;;;11.00;99.90;;;;;;5072915;28;20044;-74
2022/06/04 04:13:40;;;;;;;6.93;4.53;;;10.90;99.90;;;;;;5071327;28;20350;-74
2022/06/04 04:16:08;;;;;;;6.10;4.53;;;11.00;99.90;;;;;;5055291;28;20119;-74
2022/06/04 04:18:34;;;;;;;9.43;5.72;;;11.00;99.90;;;;;;5072914;28;20071;-75
2022/06/04 04:21:09;;;;;;;7.55;4.60;;;11.00;99.90;;;;;;5088778;28;20123;-74
2022/06/04 04:23:36;;;;;;;11.23;4.28;;;11.10;99.90;;;;;;5072652;28;20130;-74
2022/06/04 04:26:03;;;;;;;7.32;5.50;;;11.10;99.90;;;;;;5087763;28;20048;-74
2022/06/04 04:28:29;;;;;;;10.88;5.35;;;11.10;99.90;;;;;;5071800;28;20491;-74
2022/06/04 04:30:56;;;;;;;8.15;4.97;;;11.20;99.90;;;;;;5072675;28;20106;-73
2022/06/04 04:33:21;;;;;;;6.47;4.97;;;11.20;99.90;;;;;;5072149;28;20571;-74
2022/06/04 04:35:47;;;;;;;7.30;4.85;;;11.20;99.90;;;;;;5072986;28;20116;-74
2022/06/04 04:38:13;;;;;;;6.57;4.90;;;11.20;99.90;;;;;;5087929;28;20064;-74
2022/06/04 04:40:42;;;;;;;8.57;5.15;;;11.30;99.90;;;;;;5054845;28;20540;-74
2022/06/04 04:43:08;;;;;;;8.35;4.45;;;11.30;99.90;;;;;;5088436;28;20402;-74
2022/06/04 04:45:34;;;;;;;8.50;4.65;;;11.40;99.90;;;;;;5072234;28;20045;-74
2022/06/04 04:48:00;;;;;;;9.43;4.72;;;11.40;99.90;;;;;;5072184;28;20040;-74
2022/06/04 04:50:37;;;;;;;6.88;4.65;;;11.50;99.90;;;;;;5072005;28;20418;-74
2022/06/04 04:53:06;;;;;;;7.28;4.25;;;11.50;99.90;;;;;;5072363;28;20470;-74
2022/06/04 04:55:32;;;;;;;6.97;3.95;;;11.60;99.90;;;;;;5072534;28;20460;-75
2022/06/04 04:57:59;;;;;;;8.40;4.18;;;11.60;99.90;;;;;;5071597;28;20158;-73
2022/06/04 05:00:26;;;;;;;8.52;4.00;;;11.60;99.90;;;;;;5072335;28;20380;-74
2022/06/04 05:02:52;;;;;;;6.25;4.28;;;11.70;99.90;;;;;;5071338;28;20044;-74
2022/06/04 05:05:17;;;;;;;6.80;3.97;;;11.70;99.90;;;;;;5071503;28;20098;-74
2022/06/04 05:07:44;;;;;;;6.90;3.70;;;11.80;99.90;;;;;;5071886;28;20044;-74
2022/06/04 05:10:12;;;;;;;5.85;4.03;;;11.80;99.90;;;;;;5072503;28;20134;-74
2022/06/04 05:12:38;;;;;;;3.97;3.47;;;11.90;99.90;;;;;;5071979;28;20519;-74
2022/06/04 05:15:05;;;;;;;4.85;3.92;;;12.00;99.90;;;;;;5072219;28;20041;-74
2022/06/04 05:17:31;;;;;;;6.97;4.22;;;12.00;99.90;;;;;;5074310;28;20063;-74
2022/06/04 05:19:56;;;;;;;11.13;4.10;;;12.10;99.90;;;;;;5076337;28;20052;-74
2022/06/04 05:22:22;;;;;;;8.13;4.13;;;12.10;99.90;;;;;;5076412;28;20048;-74
2022/06/04 05:24:48;;;;;;;7.55;3.50;;;12.20;99.90;;;;;;5075883;28;20492;-74
2022/06/04 05:27:13;;;;;;;4.75;3.55;;;12.30;99.90;;;;;;5076111;28;20040;-74
2022/06/04 05:29:39;;;;;;;8.43;4.53;;;12.30;99.90;;;;;;5076391;28;20083;-74
2022/06/04 05:32:06;;;;;;;8.15;4.10;;;12.30;99.90;;;;;;5075985;28;20048;-75
2022/06/04 05:34:33;;;;;;;6.03;3.70;;;12.40;99.90;;;;;;5075978;28;20051;-75
2022/06/04 05:37:00;;;;;;;6.35;4.22;;;12.50;99.90;;;;;;5058646;28;20059;-74
2022/06/04 05:39:25;;;;;;;4.85;4.10;;;12.60;99.90;;;;;;5076039;28;20048;-75
2022/06/04 05:41:51;;;;;;;4.57;3.70;;;12.70;99.90;;;;;;5075614;28;20346;-74
2022/06/04 05:44:18;;;;;;;5.90;4.78;;;12.80;99.90;;;;;;5075188;28;20040;-74
2022/06/04 05:46:44;;;;;;;6.68;5.13;;;12.80;99.90;;;;;;5075416;28;20044;-74
2022/06/04 05:49:14;;;;;;;6.03;5.00;;;12.80;99.90;;;;;;5075466;28;20083;-74
2022/06/04 05:51:42;;;;;;;6.38;4.93;;;12.80;99.90;;;;;;5075574;28;20392;-75
2022/06/04 05:54:09;;;;;;;8.73;4.25;;;12.90;99.90;;;;;;5075322;28;20103;-74
2022/06/04 05:56:38;;;;;;;4.75;3.83;;;13.10;99.90;;;;;;5075241;28;20067;-72
2022/06/04 05:59:07;;;;;;;5.03;4.00;;;13.20;99.90;;;;;;5074287;28;20136;-73
2022/06/04 06:01:34;;;;;;;6.50;4.03;;;13.40;99.90;;;;;;5075472;28;20037;-73
2022/06/04 06:04:00;;;;;;;5.68;3.67;;;13.40;99.90;;;;;;5075553;28;20058;-72
2022/06/04 06:06:30;;;;;;;9.55;4.88;;;13.40;99.90;;;;;;5075218;28;20053;-72
2022/06/04 06:08:57;;;;;;;14.82;10.45;;;13.60;99.90;;;;;;5075793;28;20071;-73
2022/06/04 06:11:24;;;;;;;12.48;6.43;;;13.90;99.90;;;;;;5074995;28;20036;-73
2022/06/04 06:13:51;;;;;;;6.28;3.70;;;14.10;99.90;;;;;;5090706;28;20149;-72
2022/06/04 06:16:24;;;;;;;5.13;4.10;;;14.20;99.90;;;;;;5075053;28;20036;-73
2022/06/04 06:18:50;;;;;;;8.00;4.60;;;14.30;99.90;;;;;;5074884;28;20052;-73
2022/06/04 06:21:20;;;;;;;5.40;4.05;;;14.70;99.90;;;;;;5090278;28;20132;-74
2022/06/04 06:23:46;;;;;;;6.00;4.50;;;15.50;99.90;;;;;;5091073;28;20065;-75
2022/06/04 06:26:19;;;;;;;5.07;4.00;;;16.10;99.90;;;;;;5073827;28;20488;-75
2022/06/04 06:28:45;;;;;;;6.13;3.78;;;16.70;99.90;;;;;;5089063;28;20048;-72
2022/06/04 06:31:15;;;;;;;4.50;3.55;;;17.10;99.90;;;;;;5090766;28;20051;-72
2022/06/04 06:33:41;;;;;;;4.72;3.30;;;17.00;99.90;;;;;;5074857;28;20044;-74
2022/06/04 06:36:09;;;;;;;5.88;3.25;;;17.30;99.90;;;;;;5073452;28;20080;-74
2022/06/04 06:38:36;;;;;;;5.25;3.38;;;17.80;99.90;;;;;;5073684;28;20108;-73
2022/06/04 06:41:02;;;;;;;4.93;3.50;;;17.90;99.90;;;;;;5074871;28;20079;-74
2022/06/04 06:43:47;;;;;;;5.88;3.47;;;17.80;99.90;;;;;;5075105;28;20060;-74
2022/06/04 06:46:19;;;;;;;5.57;4.03;;;17.70;99.90;;;;;;5090826;28;20052;-75
2022/06/04 06:48:46;;;;;;;5.57;3.92;;;18.00;99.90;;;;;;5090503;28;20052;-73
2022/06/04 06:51:22;;;;;;;6.35;4.00;;;18.60;99.90;;;;;;5074632;28;20052;-74
2022/06/04 06:53:47;;;;;;;5.45;3.92;;;18.80;99.90;;;;;;5074842;28;20049;-82
2022/06/04 06:56:19;;;;;;;4.25;3.60;;;19.10;99.90;;;;;;5074684;28;20373;-74
2022/06/04 06:58:45;;;;;;;4.97;3.28;;;19.00;99.90;;;;;;5074442;28;20098;-74
2022/06/04 07:01:12;;;;;;;8.18;3.70;;;19.40;99.90;;;;;;5073990;28;20131;-74
2022/06/04 07:03:38;;;;;;;4.80;3.88;;;19.90;99.90;;;;;;5073125;28;20040;-75
2022/06/04 07:06:07;;;;;;;4.50;3.60;;;19.60;98.60;;;;;;5074066;28;20044;-74
2022/06/04 07:08:37;;;;;;;5.38;4.05;;;19.50;97.50;;;;;;5072520;28;20051;-78
2022/06/04 07:11:03;;;;;;;3.95;3.55;;;19.50;99.80;;;;;;5073166;28;20043;-79
2022/06/04 07:13:29;;;;;;;12.23;8.85;;;19.70;97.50;;;;;;5073231;28;20044;-76
2022/06/04 07:15:55;;;;;;;6.60;4.93;;;19.60;99.60;;;;;;5073800;28;20032;-76
2022/06/04 07:18:23;;;;;;;6.00;4.40;;;19.90;99.50;;;;;;5073746;28;20448;-71
2022/06/04 07:20:49;;;;;;;8.10;3.80;;;20.20;98.50;;;;;;5073758;28;20118;-71
2022/06/04 07:23:16;;;;;;;4.07;3.28;;;20.60;98.40;;;;;;5072436;28;20049;-71
2022/06/04 07:25:44;;;;;;;5.32;3.70;;;20.50;97.80;;;;;;5072660;28;20094;-72
2022/06/04 07:28:12;;;;;;;5.15;3.88;;;20.00;96.70;;;;;;5072100;28;20047;-72
2022/06/04 07:30:38;;;;;;;4.78;4.10;;;20.20;97.40;;;;;;5073203;28;20040;-72
2022/06/04 07:33:04;;;;;;;5.47;3.42;;;19.90;96.70;;;;;;5073868;28;20139;-71
2022/06/04 07:35:31;;;;;;;4.20;3.80;;;19.60;97.20;;;;;;5072512;28;20045;-71
2022/06/04 07:37:56;;;;;;;4.60;3.53;;;20.00;97.40;;;;;;5072775;28;20122;-71
2022/06/04 07:40:22;;;;;;;6.03;4.00;;;20.10;97.00;;;;;;5072948;28;20044;-72
2022/06/04 07:42:48;;;;;;;4.22;3.67;;;20.20;96.10;;;;;;5073512;28;20048;-73
2022/06/04 07:45:14;;;;;;;7.10;3.60;;;20.60;94.50;;;;;;5073198;28;20045;-73
2022/06/04 07:47:41;;;;;;;4.30;3.20;;;20.50;95.10;;;;;;5073096;28;20139;-73
2022/06/04 07:50:12;;;;;;;4.47;3.67;;;20.50;95.40;;;;;;5072456;28;20463;-75
2022/06/04 07:52:37;;;;;;;6.95;4.60;;;20.70;94.00;;;;;;5072694;28;20056;-72
2022/06/04 07:55:06;;;;;;;6.43;3.67;;;20.50;95.10;;;;;;5072982;28;20044;-74
2022/06/04 07:57:33;;;;;;;13.55;12.13;;;20.90;94.70;;;;;;5073025;28;20131;-74
2022/06/04 07:59:59;;;;;;;6.45;4.80;;;21.10;93.30;;;;;;5073394;28;20040;-75
2022/06/04 08:02:25;;;;;;;9.60;7.13;;;21.10;93.50;;;;;;5073167;28;20044;-73
2022/06/04 08:04:53;;;;;;;4.57;4.18;;;21.30;94.20;;;;;;5072868;28;20044;-73
2022/06/04 08:07:23;;;;;;;4.85;3.78;;;21.30;93.60;;;;;;5072843;28;20052;-74
2022/06/04 08:09:50;;;;;;;4.95;3.67;;;21.50;93.80;;;;;;5072794;28;20049;-74
2022/06/04 08:12:16;;;;;;;4.03;3.67;;;21.60;91.90;;;;;;5072899;28;20041;-74
2022/06/04 08:14:43;;;;;;;4.00;3.58;;;22.00;91.80;;;;;;5072909;28;20052;-73
2022/06/04 08:17:09;;;;;;;4.22;3.35;;;22.00;92.40;;;;;;5072550;28;20127;-74
2022/06/04 08:19:37;;;;;;;4.53;3.70;;;21.80;91.80;;;;;;5072751;28;20064;-74
2022/06/04 08:22:04;;;;;;;4.43;3.40;;;22.20;92.20;;;;;;5073236;28;20131;-74
2022/06/04 08:24:30;;;;;;;5.32;3.25;;;22.20;92.00;;;;;;5073014;28;20056;-73
2022/06/04 08:27:00;;;;;;;6.72;3.75;;;22.50;92.10;;;;;;5072787;28;20106;-74
2022/06/04 08:29:32;;;;;;;4.57;3.42;;;22.30;91.40;;;;;;5072801;28;20041;-74
2022/06/04 08:31:59;;;;;;;4.60;3.80;;;22.70;90.20;;;;;;5071298;28;20106;-74
2022/06/04 08:34:25;;;;;;;5.10;3.42;;;22.50;91.20;;;;;;5072643;28;20063;-73
2022/06/04 08:36:51;;;;;;;5.60;3.30;;;22.20;90.60;;;;;;5072819;28;20040;-73
2022/06/04 08:39:17;;;;;;;4.78;4.38;;;21.90;90.50;;;;;;5071884;28;20055;-73
2022/06/04 08:42:06;;;;;;;5.47;4.22;;;22.00;91.10;;;;;;5071640;28;20128;-73
2022/06/04 08:44:37;;;;;;;4.88;3.67;;;21.80;90.30;;;;;;5072284;28;20044;-73
2022/06/04 08:47:15;;;;;;;6.03;4.40;;;21.60;91.80;;;;;;5072724;28;20464;-76
2022/06/04 08:49:59;;;;;;;6.50;4.43;;;21.50;91.70;;;;;;5072326;28;20044;-74
2022/06/04 08:52:31;;;;;;;4.70;3.10;;;21.60;90.90;;;;;;5070752;28;20057;-74
2022/06/04 08:57:55;;;;;;;4.10;3.30;;;21.20;91.40;;;;;;5072169;28;20073;-71
2022/06/04 09:00:40;;;;;;;5.15;3.55;;;21.80;90.40;;;;;;5072632;28;20079;-71
2022/06/04 09:03:08;;;;;;;4.55;3.58;;;22.20;91.10;;;;;;5072783;28;20102;-70
2022/06/04 09:05:53;;;;;;;4.93;3.28;;;22.20;90.90;;;;;;5072717;28;20047;-76
2022/06/04 09:08:36;;;;;;;3.70;3.40;;;22.40;90.40;;;;;;5072344;28;20514;-72
2022/06/04 09:11:11;;;;;;;4.32;3.92;;;23.00;91.10;;;;;;5072716;28;20082;-72
2022/06/04 09:13:46;;;;;;;3.55;3.25;;;23.20;89.20;;;;;;5088502;28;20052;-72
2022/06/04 09:16:28;;;;;;;19.38;12.27;;;22.70;89.90;;;;;;5072761;28;20063;-74
2022/06/04 09:18:59;;;;;;;8.77;3.30;;;22.50;86.70;;;;;;5070918;28;20122;-73
2022/06/04 09:21:32;;;;;;;4.53;3.75;;;22.40;89.40;;;;;;5072983;28;20106;-70
2022/06/04 09:23:57;;;;;;;3.30;2.72;;;21.80;87.70;;;;;;5072500;28;20048;-70
2022/06/04 09:26:28;;;;;;;4.78;3.20;;;21.80;90.40;;;;;;5072075;28;20067;-72
2022/06/04 09:29:06;;;;;;;3.55;3.20;;;21.80;90.30;;;;;;5072245;28;20131;-71
2022/06/04 09:32:01;;;;;;;4.45;3.30;;;22.10;90.40;;;;;;5071647;28;20049;-71
2022/06/04 09:34:40;;;;;;;4.72;3.08;;;21.80;89.10;;;;;;5072535;28;20449;-71
2022/06/04 09:37:10;;;;;;;3.95;3.13;;;21.50;89.90;;;;;;5072500;28;20059;-71
2022/06/04 09:39:39;;;;;;;6.03;2.85;;;21.50;89.80;;;;;;5072412;28;20041;-71
2022/06/04 09:42:19;;;;;;;3.33;3.00;;;21.30;90.60;;;;;;5072211;28;20040;-70
2022/06/04 09:45:00;;;;;;;3.45;3.03;;;21.40;88.20;;;;;;5072487;28;20128;-71
2022/06/04 09:47:41;;;;;;;3.15;2.85;;;21.60;88.90;;;;;;5071945;28;20047;-72
2022/06/04 09:50:35;;;;;;;3.45;3.03;;;22.20;90.00;;;;;;5072263;28;20044;-73
2022/06/04 09:53:19;;;;;;;3.40;2.90;;;21.80;87.80;;;;;;5088154;28;20131;-81
2022/06/04 09:56:29;;;;;;;3.45;2.78;;;22.20;89.70;;;;;;5071857;28;20138;-74
2022/06/04 09:59:05;;;;;;;3.10;2.70;;;22.00;88.10;;;;;;5051934;28;20061;-71
2022/06/04 10:01:31;;;;;;;3.15;2.83;;;21.90;90.00;;;;;;5073217;28;20060;-73
2022/06/04 10:04:10;;;;;;;5.03;2.78;;;22.10;89.90;;;;;;5075136;28;20045;-76
2022/06/04 10:06:36;;;;;;;13.23;7.82;;;21.40;87.00;;;;;;5075903;28;20076;-75
2022/06/04 10:11:59;;;;;;;4.38;2.92;;;21.40;88.60;;;;;;5074926;28;20054;-74
2022/06/04 10:14:39;;;;;;;5.20;2.80;;;21.00;88.90;;;;;;5075042;28;20040;-73
2022/06/04 10:17:17;;;;;;;4.95;3.15;;;21.60;89.90;;;;;;5074887;28;20395;-74
2022/06/04 10:19:54;;;;;;;4.07;3.28;;;21.90;90.30;;;;;;5074969;28;20056;-75
2022/06/04 10:22:20;;;;;;;3.40;2.80;;;21.80;89.10;;;;;;5073533;28;20045;-74
2022/06/04 10:24:53;;;;;;;5.30;2.83;;;22.10;88.60;;;;;;5074948;28;20049;-72
2022/06/04 10:27:31;;;;;;;3.40;3.00;;;22.00;88.70;;;;;;5075102;28;20105;-75
2022/06/04 10:30:23;;;;;;;21.52;16.85;;;22.20;89.70;;;;;;5074751;28;20070;-73
2022/06/04 10:33:06;;;;;;;4.95;2.72;;;22.00;88.70;;;;;;5075167;28;20087;-73
2022/06/04 10:35:46;;;;;;;4.38;2.97;;;21.50;87.70;;;;;;5075220;28;20054;-74
2022/06/04 10:38:36;;;;;;;4.63;2.53;;;21.70;89.70;;;;;;5075313;28;20074;-74
2022/06/04 10:41:30;;;;;;;6.18;2.83;;;21.30;89.60;;;;;;5073866;28;20151;-74
2022/06/04 10:44:27;;;;;;;2.83;2.58;;;21.40;89.40;;;;;;5074502;28;20412;-73
2022/06/04 10:47:05;;;;;;;6.95;3.38;;;21.80;90.00;;;;;;5074068;28;20048;-74
2022/06/04 10:49:51;;;;;;;4.18;2.78;;;22.50;89.30;;;;;;5074687;28;20128;-75
2022/06/04 10:52:23;;;;;;;4.55;2.83;;;22.50;88.90;;;;;;5075588;28;20178;-73
2022/06/04 10:54:58;;;;;;;5.15;3.22;;;22.40;88.10;;;;;;5074596;28;20498;-74
2022/06/04 10:57:45;;;;;;;5.40;2.92;;;21.90;88.00;;;;;;5074659;28;20056;-75
2022/06/04 11:00:18;;;;;;;2.85;2.63;;;21.70;90.00;;;;;;5074496;28;20044;-73
2022/06/04 11:02:52;;;;;;;4.38;3.97;;;21.80;89.70;;;;;;5074786;28;20051;-73
2022/06/04 11:05:32;;;;;;;3.20;2.90;;;21.40;91.20;;;;;;5075085;28;20080;-74
2022/06/04 11:08:16;;;;;;;5.80;2.95;;;20.80;92.10;;;;;;5074716;28;20048;-75
2022/06/04 11:11:20;;;;;;;4.05;2.97;;;20.90;93.20;;;;;;5074134;28;20450;-73
2022/06/04 11:13:52;;;;;;;4.90;3.05;;;20.80;90.80;;;;;;5051711;28;20049;-73
2022/06/04 11:16:31;;;;;;;5.37;3.43;;;20.60;91.70;;;;;;5074568;28;20041;-75
2022/06/04 11:19:18;;;;;;;3.75;3.08;;;20.50;93.50;;;;;;5073635;28;20448;-72
2022/06/04 11:21:51;;;;;;;4.90;3.17;;;20.40;92.50;;;;;;5074140;28;20044;-73
2022/06/04 11:24:20;;;;;;;9.13;2.90;;;20.40;92.50;;;;;;5074174;28;20060;-73
2022/06/04 11:26:55;;;;;;;4.05;3.15;;;20.40;93.00;;;;;;5074013;28;20060;-73
2022/06/04 11:29:21;;;;;;;5.55;3.38;;;20.60;92.40;;;;;;5056937;28;20041;-73
2022/06/04 11:32:21;;;;;;;7.28;3.95;;;20.70;92.30;;;;;;5074376;28;20057;-77
2022/06/04 11:35:04;;;;;;;4.00;3.17;;;20.80;94.20;;;;;;5050952;28;20122;-75
2022/06/04 11:37:33;;;;;;;5.47;4.10;;;20.50;92.60;;;;;;5074018;28;20041;-81
2022/06/04 11:40:21;;;;;;;11.02;8.30;;;20.30;93.60;;;;;;5073404;28;20078;-72
2022/06/04 11:43:07;;;;;;;3.78;3.08;;;20.30;93.90;;;;;;5073460;28;20094;-72
2022/06/04 11:45:49;;;;;;;5.95;3.42;;;20.30;94.30;;;;;;5089292;28;20048;-74
2022/06/04 11:48:39;;;;;;;4.85;3.42;;;20.30;94.20;;;;;;5073728;28;20125;-71
2022/06/04 11:51:23;;;;;;;10.13;3.75;;;20.50;93.70;;;;;;5073824;28;20047;-75
2022/06/04 11:53:56;;;;;;;6.38;3.35;;;20.10;93.20;;;;;;5089575;28;20060;-76
2022/06/04 11:56:39;;;;;;;3.60;3.15;;;19.90;94.50;;;;;;5073844;28;20060;-74
2022/06/04 11:59:23;;;;;;;3.78;3.03;;;20.00;94.80;;;;;;5072495;28;20055;-74
2022/06/04 12:01:51;;;;;;;5.25;3.75;;;20.10;94.50;;;;;;5073663;28;20112;-75
2022/06/04 12:04:29;;;;;;;3.28;2.92;;;20.00;93.90;;;;;;5073290;28;20483;-73
2022/06/04 12:07:01;;;;;;;13.77;9.23;;;20.00;94.60;;;;;;5071922;28;20060;-74
2022/06/04 12:09:56;;;;;;;4.77;3.10;;;19.80;94.60;;;;;;5073029;28;20450;-74
2022/06/04 12:12:29;;;;;;;4.20;3.13;;;19.90;95.80;;;;;;5073424;28;20275;-75
2022/06/04 12:15:13;;;;;;;6.78;3.53;;;19.80;95.10;;;;;;5073268;28;20069;-75
2022/06/04 12:18:27;;;;;;;10.13;3.55;;;19.60;95.50;;;;;;5072830;28;20044;-73
2022/06/04 12:27:30;;;;;;;5.75;4.05;;;19.80;94.80;;;;;;5009475;28;20050;-75
2022/06/04 12:29:58;;;;;;;7.68;6.80;;;19.70;96.10;;;;;;4973301;28;20050;-75
2022/06/04 12:32:28;;;;;;;5.60;3.85;;;19.80;95.30;;;;;;5054335;28;20058;-72
2022/06/04 12:35:23;;;;;;;6.07;3.28;;;19.90;95.40;;;;;;5072277;28;20135;-74
2022/06/04 12:37:58;;;;;;;7.28;3.78;;;20.00;93.90;;;;;;5058716;28;20106;-75
2022/06/04 12:40:32;;;;;;;6.57;4.25;;;20.20;94.20;;;;;;5072556;28;20118;-74
2022/06/04 12:43:07;;;;;;;7.53;4.28;;;20.30;94.20;;;;;;5072289;28;20080;-75
2022/06/04 12:45:36;;;;;;;5.03;3.40;;;20.30;94.30;;;;;;5072487;28;20047;-74
2022/06/04 12:48:02;;;;;;;6.95;3.92;;;20.40;93.70;;;;;;5071910;28;20045;-75
2022/06/04 12:50:37;;;;;;;6.80;3.75;;;20.40;93.50;;;;;;5071958;28;20125;-76
2022/06/04 12:53:24;;;;;;;7.00;3.45;;;20.50;93.50;;;;;;5071923;28;20055;-75
2022/06/04 12:55:55;;;;;;;8.75;4.85;;;20.70;94.30;;;;;;5070922;28;20048;-75
2022/06/04 12:58:30;;;;;;;8.63;3.88;;;20.70;93.40;;;;;;5071454;28;20049;-75
2022/06/04 13:01:00;;;;;;;7.00;4.00;;;20.60;94.30;;;;;;5072277;28;20040;-74
2022/06/04 13:03:37;;;;;;;5.93;3.90;;;20.60;93.50;;;;;;5071507;28;20048;-73
2022/06/04 13:06:23;;;;;;;7.47;3.47;;;20.80;93.50;;;;;;5072296;28;20115;-76
2022/06/04 13:09:17;;;;;;;5.65;3.58;;;20.40;93.70;;;;;;5072303;28;20045;-77
2022/06/04 13:11:48;;;;;;;;;;;20.40;93.50;;;;;;5072264;28;20452;-76
2022/06/04 13:14:28;;;;;;;9.32;4.03;;;20.40;93.70;;;;;;5071895;28;19978;-76
2022/06/04 13:17:11;;;;;;;5.50;3.95;;;20.20;94.00;;;;;;5072093;28;20044;-75
2022/06/04 13:19:49;;;;;;;6.63;3.92;;;20.00;94.40;;;;;;5070635;28;20517;-75
2022/06/04 13:22:28;;;;;;;6.05;3.80;;;20.10;94.60;;;;;;5072491;28;20044;-74
2022/06/04 13:24:57;;;;;;;6.28;3.80;;;20.20;94.60;;;;;;5071755;28;20109;-75
2022/06/04 13:27:41;;;;;;;5.75;3.90;;;20.00;94.60;;;;;;5072312;28;20463;-74
2022/06/04 13:30:20;;;;;;;7.00;3.63;;;20.00;94.80;;;;;;5088039;28;20053;-76
2022/06/04 13:32:47;;;;;;;5.88;4.15;;;20.10;94.60;;;;;;5071662;28;20148;-79